In Rescue
 
Open Full Screen Window  High Contrast Mode
Wind Gusting 15 knots
09
June 22, 2024 9:44 PM CDT
Weather Information
Wind Direction
  340 °
Wind Speed
  09 kt (10 mph)
Wind Gust
  15 kt (17 mph)
Altimeter
29.85 in
Visibility
10 SM
Temperature
19° C
66° F
Dewpoint
17° C
63° F
Humidity
88%
Sky Condition
Broken @ 1,900 ft
MVFR

METAR KULM 230244Z AUTO 34009G15KT 10SM BKN019 19/17 A2985 RMK AO2

FAA Disclaimer: The data displayed is for advisory purposes only and is not to be used for flight planning or operations.